LIRZ/PEG METAR and TAF weather

Enter ICAO airport designator
Station Type Date Time Source
LIRZ METAR 2019/08/23 14:50 UTC NOAA

LIRZ 231450Z 32005KT 290V350 9999 VCTS SCT040CB 30/15 Q1017


Station Type Date Time Source
LIRZ Decoded METAR 2019/08/23 14:50 UTC NOAA

Station name not available
Aug 23, 2019 - 10:50 AM EDT / 2019.08.23 1450 UTC
Wind: from the NW (320 degrees) at 6 MPH (5 KT) (direction variable):0
Visibility: greater than 7 mile(s):0
Sky conditions: partly cloudy
Weather: thunder in the vicinity; Cumulonimbus clouds observed
Temperature: 86 F (30 C)
Dew Point: 59 F (15 C)
Relative Humidity: 40%
Pressure (altimeter): 30.03 in. Hg (1017 hPa)
ob: LIRZ 231450Z 32005KT 290V350 9999 VCTS SCT040CB 30/15 Q1017
cycle: 15

Station Type Date Time Source
LIRZ TAF 2019/08/23 12:21 UTC NOAA

TAF TAF LIRZ 231100Z 2312/2412 VRB05KT 9999 SCT030
TEMPO 2312/2318 TSRA
TEMPO 2403/2409 RA

Example: see airport list